sensor_id;sensor_type;location;lat;lon;timestamp;temperature;humidity
75130;HTU21D;63703;44.716;37.846;2023-03-23T00:01:58;11.49;68.88
75130;HTU21D;63703;44.716;37.846;2023-03-23T00:04:24;11.45;68.91
75130;HTU21D;63703;44.716;37.846;2023-03-23T00:06:52;11.42;68.97
75130;HTU21D;63703;44.716;37.846;2023-03-23T00:09:18;11.42;69.00
75130;HTU21D;63703;44.716;37.846;2023-03-23T00:11:49;11.40;69.04
75130;HTU21D;63703;44.716;37.846;2023-03-23T00:14:16;11.32;69.13
75130;HTU21D;63703;44.716;37.846;2023-03-23T00:16:42;11.29;69.23
75130;HTU21D;63703;44.716;37.846;2023-03-23T00:19:11;11.28;69.26
75130;HTU21D;63703;44.716;37.846;2023-03-23T00:21:41;11.24;69.27
75130;HTU21D;63703;44.716;37.846;2023-03-23T00:24:16;11.22;69.33
75130;HTU21D;63703;44.716;37.846;2023-03-23T00:26:46;11.19;69.33
75130;HTU21D;63703;44.716;37.846;2023-03-23T00:29:16;11.22;69.39
75130;HTU21D;63703;44.716;37.846;2023-03-23T00:31:43;11.18;69.43
75130;HTU21D;63703;44.716;37.846;2023-03-23T00:34:18;11.22;69.44
75130;HTU21D;63703;44.716;37.846;2023-03-23T00:36:49;11.18;69.45
75130;HTU21D;63703;44.716;37.846;2023-03-23T00:39:16;11.13;69.47
75130;HTU21D;63703;44.716;37.846;2023-03-23T00:41:43;11.04;69.51
75130;HTU21D;63703;44.716;37.846;2023-03-23T00:44:10;10.97;69.55
75130;HTU21D;63703;44.716;37.846;2023-03-23T00:46:43;10.92;69.64
75130;HTU21D;63703;44.716;37.846;2023-03-23T00:49:16;10.87;69.69
75130;HTU21D;63703;44.716;37.846;2023-03-23T00:51:43;10.83;69.74
75130;HTU21D;63703;44.716;37.846;2023-03-23T00:54:09;10.78;69.80
75130;HTU21D;63703;44.716;37.846;2023-03-23T00:56:36;10.74;69.87
75130;HTU21D;63703;44.716;37.846;2023-03-23T00:59:03;10.72;69.92
75130;HTU21D;63703;44.716;37.846;2023-03-23T01:01:29;10.71;69.95
75130;HTU21D;63703;44.716;37.846;2023-03-23T01:03:58;10.70;69.99
75130;HTU21D;63703;44.716;37.846;2023-03-23T01:06:31;10.68;70.10
75130;HTU21D;63703;44.716;37.846;2023-03-23T01:08:58;10.64;70.13
75130;HTU21D;63703;44.716;37.846;2023-03-23T01:11:24;10.62;70.20
75130;HTU21D;63703;44.716;37.846;2023-03-23T01:13:51;10.60;70.28
75130;HTU21D;63703;44.716;37.846;2023-03-23T01:16:20;10.59;70.39
75130;HTU21D;63703;44.716;37.846;2023-03-23T01:18:46;10.59;70.44
75130;HTU21D;63703;44.716;37.846;2023-03-23T01:21:14;10.57;70.50
75130;HTU21D;63703;44.716;37.846;2023-03-23T01:23:41;10.55;70.56
75130;HTU21D;63703;44.716;37.846;2023-03-23T01:26:11;10.55;70.65
75130;HTU21D;63703;44.716;37.846;2023-03-23T01:28:40;10.55;70.76
75130;HTU21D;63703;44.716;37.846;2023-03-23T01:31:08;10.51;70.84
75130;HTU21D;63703;44.716;37.846;2023-03-23T01:33:35;10.48;70.93
75130;HTU21D;63703;44.716;37.846;2023-03-23T01:36:06;10.45;71.41
75130;HTU21D;63703;44.716;37.846;2023-03-23T01:38:34;10.38;71.69
75130;HTU21D;63703;44.716;37.846;2023-03-23T01:41:01;10.34;71.84
75130;HTU21D;63703;44.716;37.846;2023-03-23T01:43:27;10.28;72.03
75130;HTU21D;63703;44.716;37.846;2023-03-23T01:45:53;10.23;72.32
75130;HTU21D;63703;44.716;37.846;2023-03-23T01:48:30;10.21;72.93
75130;HTU21D;63703;44.716;37.846;2023-03-23T01:51:07;10.14;72.93
75130;HTU21D;63703;44.716;37.846;2023-03-23T01:53:46;10.10;73.19
75130;HTU21D;63703;44.716;37.846;2023-03-23T01:56:16;10.00;73.01
75130;HTU21D;63703;44.716;37.846;2023-03-23T01:58:44;9.93;73.10
75130;HTU21D;63703;44.716;37.846;2023-03-23T02:01:13;9.86;73.25
75130;HTU21D;63703;44.716;37.846;2023-03-23T02:03:43;9.82;73.41
75130;HTU21D;63703;44.716;37.846;2023-03-23T02:06:11;9.78;73.47
75130;HTU21D;63703;44.716;37.846;2023-03-23T02:08:54;9.75;73.55
75130;HTU21D;63703;44.716;37.846;2023-03-23T02:11:21;9.74;73.73
75130;HTU21D;63703;44.716;37.846;2023-03-23T02:13:49;9.71;73.85
75130;HTU21D;63703;44.716;37.846;2023-03-23T02:16:39;9.69;74.04
75130;HTU21D;63703;44.716;37.846;2023-03-23T02:28:31;9.59;75.15
75130;HTU21D;63703;44.716;37.846;2023-03-23T02:31:22;9.59;75.71
75130;HTU21D;63703;44.716;37.846;2023-03-23T02:36:33;9.48;75.27
75130;HTU21D;63703;44.716;37.846;2023-03-23T02:39:08;9.42;75.31
75130;HTU21D;63703;44.716;37.846;2023-03-23T02:41:42;9.41;75.44
75130;HTU21D;63703;44.716;37.846;2023-03-23T02:44:10;9.41;75.30
75130;HTU21D;63703;44.716;37.846;2023-03-23T02:46:39;9.42;75.28
75130;HTU21D;63703;44.716;37.846;2023-03-23T02:49:08;9.45;75.27
75130;HTU21D;63703;44.716;37.846;2023-03-23T02:51:36;9.46;75.25
75130;HTU21D;63703;44.716;37.846;2023-03-23T02:54:03;9.46;75.25
75130;HTU21D;63703;44.716;37.846;2023-03-23T02:56:31;9.46;75.22
75130;HTU21D;63703;44.716;37.846;2023-03-23T02:59:01;9.50;75.19
75130;HTU21D;63703;44.716;37.846;2023-03-23T03:03:56;9.60;75.10
75130;HTU21D;63703;44.716;37.846;2023-03-23T03:09:02;9.66;75.00
75130;HTU21D;63703;44.716;37.846;2023-03-23T03:11:31;9.70;74.96
75130;HTU21D;63703;44.716;37.846;2023-03-23T03:14:08;9.74;74.93
75130;HTU21D;63703;44.716;37.846;2023-03-23T03:16:48;9.77;74.86
75130;HTU21D;63703;44.716;37.846;2023-03-23T03:19:32;9.82;74.85
75130;HTU21D;63703;44.716;37.846;2023-03-23T03:22:01;9.86;74.67
75130;HTU21D;63703;44.716;37.846;2023-03-23T03:24:40;9.91;74.56
75130;HTU21D;63703;44.716;37.846;2023-03-23T03:27:20;9.94;74.47
75130;HTU21D;63703;44.716;37.846;2023-03-23T03:29:54;9.97;74.51
75130;HTU21D;63703;44.716;37.846;2023-03-23T03:32:25;9.96;74.35
75130;HTU21D;63703;44.716;37.846;2023-03-23T03:35:00;9.96;74.35
75130;HTU21D;63703;44.716;37.846;2023-03-23T03:37:26;10.00;74.25
75130;HTU21D;63703;44.716;37.846;2023-03-23T03:39:52;10.06;74.13
75130;HTU21D;63703;44.716;37.846;2023-03-23T03:42:19;10.12;73.96
75130;HTU21D;63703;44.716;37.846;2023-03-23T03:44:45;10.14;73.86
75130;HTU21D;63703;44.716;37.846;2023-03-23T03:47:11;10.12;73.83
75130;HTU21D;63703;44.716;37.846;2023-03-23T03:49:37;10.10;73.83
75130;HTU21D;63703;44.716;37.846;2023-03-23T03:52:03;10.07;73.85
75130;HTU21D;63703;44.716;37.846;2023-03-23T03:54:39;10.10;73.87
75130;HTU21D;63703;44.716;37.846;2023-03-23T03:57:06;10.11;73.90
75130;HTU21D;63703;44.716;37.846;2023-03-23T03:59:33;10.15;73.93
75130;HTU21D;63703;44.716;37.846;2023-03-23T04:02:26;10.14;73.92
75130;HTU21D;63703;44.716;37.846;2023-03-23T04:04:53;10.13;73.92
75130;HTU21D;63703;44.716;37.846;2023-03-23T04:07:19;10.11;73.92
75130;HTU21D;63703;44.716;37.846;2023-03-23T04:09:48;10.16;73.83
75130;HTU21D;63703;44.716;37.846;2023-03-23T04:12:17;10.22;73.74
75130;HTU21D;63703;44.716;37.846;2023-03-23T04:14:55;10.30;73.64
75130;HTU21D;63703;44.716;37.846;2023-03-23T04:17:25;10.36;73.54
75130;HTU21D;63703;44.716;37.846;2023-03-23T04:19:53;10.45;73.41
75130;HTU21D;63703;44.716;37.846;2023-03-23T04:22:23;10.74;72.86
75130;HTU21D;63703;44.716;37.846;2023-03-23T04:25:00;11.09;72.03
75130;HTU21D;63703;44.716;37.846;2023-03-23T04:27:30;11.26;71.73
75130;HTU21D;63703;44.716;37.846;2023-03-23T04:29:59;11.34;71.71
75130;HTU21D;63703;44.716;37.846;2023-03-23T04:32:45;11.34;71.67
75130;HTU21D;63703;44.716;37.846;2023-03-23T04:35:18;11.26;71.89
75130;HTU21D;63703;44.716;37.846;2023-03-23T04:37:49;11.18;72.03
75130;HTU21D;63703;44.716;37.846;2023-03-23T04:40:19;11.12;72.15
75130;HTU21D;63703;44.716;37.846;2023-03-23T04:42:55;11.11;72.17
75130;HTU21D;63703;44.716;37.846;2023-03-23T04:45:56;11.14;72.16
75130;HTU21D;63703;44.716;37.846;2023-03-23T04:48:25;11.17;72.09
75130;HTU21D;63703;44.716;37.846;2023-03-23T04:51:12;11.25;72.03
75130;HTU21D;63703;44.716;37.846;2023-03-23T04:53:39;11.28;71.94
75130;HTU21D;63703;44.716;37.846;2023-03-23T04:56:07;11.37;71.81
75130;HTU21D;63703;44.716;37.846;2023-03-23T04:58:39;11.45;71.64
75130;HTU21D;63703;44.716;37.846;2023-03-23T05:01:20;11.47;71.59
75130;HTU21D;63703;44.716;37.846;2023-03-23T05:04:12;11.51;71.58
75130;HTU21D;63703;44.716;37.846;2023-03-23T05:06:47;11.53;71.59
75130;HTU21D;63703;44.716;37.846;2023-03-23T05:09:20;11.58;71.53
75130;HTU21D;63703;44.716;37.846;2023-03-23T05:11:47;11.67;71.42
75130;HTU21D;63703;44.716;37.846;2023-03-23T05:14:14;11.73;71.33
75130;HTU21D;63703;44.716;37.846;2023-03-23T05:16:44;11.81;71.26
75130;HTU21D;63703;44.716;37.846;2023-03-23T05:19:14;11.89;71.18
75130;HTU21D;63703;44.716;37.846;2023-03-23T05:21:40;11.94;71.09
75130;HTU21D;63703;44.716;37.846;2023-03-23T05:24:07;11.93;71.01
75130;HTU21D;63703;44.716;37.846;2023-03-23T05:26:33;11.93;71.04
75130;HTU21D;63703;44.716;37.846;2023-03-23T05:29:06;12.00;71.00
75130;HTU21D;63703;44.716;37.846;2023-03-23T05:31:45;12.10;70.90
75130;HTU21D;63703;44.716;37.846;2023-03-23T05:34:11;12.17;70.69
75130;HTU21D;63703;44.716;37.846;2023-03-23T05:36:45;12.22;70.45
75130;HTU21D;63703;44.716;37.846;2023-03-23T05:39:25;12.31;70.32
75130;HTU21D;63703;44.716;37.846;2023-03-23T05:42:15;12.40;70.16
75130;HTU21D;63703;44.716;37.846;2023-03-23T05:45:08;12.51;69.97
75130;HTU21D;63703;44.716;37.846;2023-03-23T05:47:40;12.61;69.77
75130;HTU21D;63703;44.716;37.846;2023-03-23T05:50:10;12.74;69.54
75130;HTU21D;63703;44.716;37.846;2023-03-23T05:52:39;12.86;69.29
75130;HTU21D;63703;44.716;37.846;2023-03-23T05:55:08;13.02;69.01
75130;HTU21D;63703;44.716;37.846;2023-03-23T05:57:37;13.20;68.71
75130;HTU21D;63703;44.716;37.846;2023-03-23T06:00:16;13.37;68.48
75130;HTU21D;63703;44.716;37.846;2023-03-23T06:02:55;13.53;68.23
75130;HTU21D;63703;44.716;37.846;2023-03-23T06:05:29;13.70;68.02
75130;HTU21D;63703;44.716;37.846;2023-03-23T06:07:57;13.80;67.53
75130;HTU21D;63703;44.716;37.846;2023-03-23T06:10:24;13.81;66.98
75130;HTU21D;63703;44.716;37.846;2023-03-23T06:12:57;13.73;66.33
75130;HTU21D;63703;44.716;37.846;2023-03-23T06:15:30;13.59;66.06
75130;HTU21D;63703;44.716;37.846;2023-03-23T06:18:15;13.36;66.40
75130;HTU21D;63703;44.716;37.846;2023-03-23T06:21:11;13.25;66.85
75130;HTU21D;63703;44.716;37.846;2023-03-23T06:23:56;13.30;67.07
75130;HTU21D;63703;44.716;37.846;2023-03-23T06:26:31;13.43;66.98
75130;HTU21D;63703;44.716;37.846;2023-03-23T06:29:00;13.53;66.77
75130;HTU21D;63703;44.716;37.846;2023-03-23T06:31:29;13.44;66.42
75130;HTU21D;63703;44.716;37.846;2023-03-23T06:33:55;13.22;67.33
75130;HTU21D;63703;44.716;37.846;2023-03-23T06:36:25;13.07;68.01
75130;HTU21D;63703;44.716;37.846;2023-03-23T06:39:30;12.89;68.84
75130;HTU21D;63703;44.716;37.846;2023-03-23T06:42:13;12.85;69.45
75130;HTU21D;63703;44.716;37.846;2023-03-23T06:44:45;12.84;69.97
75130;HTU21D;63703;44.716;37.846;2023-03-23T06:47:12;12.80;70.48
75130;HTU21D;63703;44.716;37.846;2023-03-23T06:49:45;12.74;70.99
75130;HTU21D;63703;44.716;37.846;2023-03-23T06:52:20;12.82;70.95
75130;HTU21D;63703;44.716;37.846;2023-03-23T06:54:49;12.90;70.97
75130;HTU21D;63703;44.716;37.846;2023-03-23T06:57:15;12.99;71.06
75130;HTU21D;63703;44.716;37.846;2023-03-23T06:59:44;13.02;71.16
75130;HTU21D;63703;44.716;37.846;2023-03-23T07:02:11;13.06;71.26
75130;HTU21D;63703;44.716;37.846;2023-03-23T07:04:38;13.10;71.25
75130;HTU21D;63703;44.716;37.846;2023-03-23T07:07:10;13.16;71.21
75130;HTU21D;63703;44.716;37.846;2023-03-23T07:09:45;13.23;71.25
75130;HTU21D;63703;44.716;37.846;2023-03-23T07:12:14;13.37;71.19
75130;HTU21D;63703;44.716;37.846;2023-03-23T07:14:45;13.44;71.09
75130;HTU21D;63703;44.716;37.846;2023-03-23T07:17:11;13.47;71.26
75130;HTU21D;63703;44.716;37.846;2023-03-23T07:19:43;13.54;71.38
75130;HTU21D;63703;44.716;37.846;2023-03-23T07:22:13;13.50;71.51
75130;HTU21D;63703;44.716;37.846;2023-03-23T07:24:42;13.45;71.71
75130;HTU21D;63703;44.716;37.846;2023-03-23T07:27:17;13.43;72.01
75130;HTU21D;63703;44.716;37.846;2023-03-23T07:29:44;13.39;72.16
75130;HTU21D;63703;44.716;37.846;2023-03-23T07:32:17;13.36;72.36
75130;HTU21D;63703;44.716;37.846;2023-03-23T07:34:43;13.34;72.45
75130;HTU21D;63703;44.716;37.846;2023-03-23T07:37:24;13.34;72.52
75130;HTU21D;63703;44.716;37.846;2023-03-23T07:39:51;13.34;72.58
75130;HTU21D;63703;44.716;37.846;2023-03-23T07:42:17;13.31;72.70
75130;HTU21D;63703;44.716;37.846;2023-03-23T07:44:51;13.49;72.60
75130;HTU21D;63703;44.716;37.846;2023-03-23T07:47:17;13.60;72.57
75130;HTU21D;63703;44.716;37.846;2023-03-23T07:49:45;13.60;72.54
75130;HTU21D;63703;44.716;37.846;2023-03-23T07:52:26;13.55;72.67
75130;HTU21D;63703;44.716;37.846;2023-03-23T07:54:52;13.47;72.70
75130;HTU21D;63703;44.716;37.846;2023-03-23T07:57:45;13.44;72.87
75130;HTU21D;63703;44.716;37.846;2023-03-23T08:00:14;13.47;72.99
75130;HTU21D;63703;44.716;37.846;2023-03-23T08:02:46;13.48;72.99
75130;HTU21D;63703;44.716;37.846;2023-03-23T08:05:38;13.50;72.81
75130;HTU21D;63703;44.716;37.846;2023-03-23T08:08:26;13.58;72.84
75130;HTU21D;63703;44.716;37.846;2023-03-23T08:11:16;13.68;72.91
75130;HTU21D;63703;44.716;37.846;2023-03-23T08:13:42;13.71;72.74
75130;HTU21D;63703;44.716;37.846;2023-03-23T08:16:47;13.82;72.80
75130;HTU21D;63703;44.716;37.846;2023-03-23T08:19:34;13.82;72.61
75130;HTU21D;63703;44.716;37.846;2023-03-23T08:22:22;13.86;72.51
75130;HTU21D;63703;44.716;37.846;2023-03-23T08:25:08;14.04;72.54
75130;HTU21D;63703;44.716;37.846;2023-03-23T08:27:54;14.15;72.34
75130;HTU21D;63703;44.716;37.846;2023-03-23T08:30:39;14.19;72.27
75130;HTU21D;63703;44.716;37.846;2023-03-23T08:33:28;14.22;72.23
75130;HTU21D;63703;44.716;37.846;2023-03-23T08:36:17;14.27;72.09
75130;HTU21D;63703;44.716;37.846;2023-03-23T08:39:18;14.49;71.55
75130;HTU21D;63703;44.716;37.846;2023-03-23T08:41:53;14.53;71.29
75130;HTU21D;63703;44.716;37.846;2023-03-23T08:44:53;14.66;70.90
75130;HTU21D;63703;44.716;37.846;2023-03-23T08:47:38;14.77;69.80
75130;HTU21D;63703;44.716;37.846;2023-03-23T08:50:29;14.84;69.19
75130;HTU21D;63703;44.716;37.846;2023-03-23T08:53:14;14.92;68.71
75130;HTU21D;63703;44.716;37.846;2023-03-23T08:55:41;15.00;67.59
75130;HTU21D;63703;44.716;37.846;2023-03-23T08:58:19;14.95;67.49
75130;HTU21D;63703;44.716;37.846;2023-03-23T09:00:45;15.07;67.21
75130;HTU21D;63703;44.716;37.846;2023-03-23T09:03:37;15.08;67.07
75130;HTU21D;63703;44.716;37.846;2023-03-23T09:06:19;15.09;66.72
75130;HTU21D;63703;44.716;37.846;2023-03-23T09:08:53;15.11;66.75
75130;HTU21D;63703;44.716;37.846;2023-03-23T09:11:20;15.13;66.46
75130;HTU21D;63703;44.716;37.846;2023-03-23T09:13:46;15.18;66.39
75130;HTU21D;63703;44.716;37.846;2023-03-23T09:16:12;15.26;66.41
75130;HTU21D;63703;44.716;37.846;2023-03-23T09:18:38;15.38;66.09
75130;HTU21D;63703;44.716;37.846;2023-03-23T09:21:04;15.36;65.88
75130;HTU21D;63703;44.716;37.846;2023-03-23T09:23:31;15.34;66.31
75130;HTU21D;63703;44.716;37.846;2023-03-23T09:25:57;15.45;65.95
75130;HTU21D;63703;44.716;37.846;2023-03-23T09:28:24;15.45;65.93
75130;HTU21D;63703;44.716;37.846;2023-03-23T09:30:50;15.38;66.01
75130;HTU21D;63703;44.716;37.846;2023-03-23T09:33:17;15.31;66.11
75130;HTU21D;63703;44.716;37.846;2023-03-23T09:35:43;15.17;66.36
75130;HTU21D;63703;44.716;37.846;2023-03-23T09:38:10;15.11;66.60
75130;HTU21D;63703;44.716;37.846;2023-03-23T09:46:13;15.13;67.06
75130;HTU21D;63703;44.716;37.846;2023-03-23T09:48:54;15.09;67.52
75130;HTU21D;63703;44.716;37.846;2023-03-23T09:51:37;15.18;67.50
75130;HTU21D;63703;44.716;37.846;2023-03-23T09:54:29;15.26;67.30
75130;HTU21D;63703;44.716;37.846;2023-03-23T09:56:58;15.41;67.30
75130;HTU21D;63703;44.716;37.846;2023-03-23T10:02:24;15.99;66.60
75130;HTU21D;63703;44.716;37.846;2023-03-23T10:04:54;16.22;66.36
75130;HTU21D;63703;44.716;37.846;2023-03-23T10:07:26;16.46;65.96
75130;HTU21D;63703;44.716;37.846;2023-03-23T10:09:56;16.70;65.34
75130;HTU21D;63703;44.716;37.846;2023-03-23T10:12:42;16.93;64.70
75130;HTU21D;63703;44.716;37.846;2023-03-23T10:15:14;17.16;64.71
75130;HTU21D;63703;44.716;37.846;2023-03-23T10:17:54;17.19;64.30
75130;HTU21D;63703;44.716;37.846;2023-03-23T10:25:37;17.44;64.05
75130;HTU21D;63703;44.716;37.846;2023-03-23T10:28:15;17.77;63.32
75130;HTU21D;63703;44.716;37.846;2023-03-23T10:31:02;17.97;62.42
75130;HTU21D;63703;44.716;37.846;2023-03-23T10:33:33;18.03;62.46
75130;HTU21D;63703;44.716;37.846;2023-03-23T10:36:02;18.12;62.41
75130;HTU21D;63703;44.716;37.846;2023-03-23T10:39:00;18.23;61.65
75130;HTU21D;63703;44.716;37.846;2023-03-23T10:41:28;18.29;61.86
75130;HTU21D;63703;44.716;37.846;2023-03-23T10:43:54;18.36;61.49
75130;HTU21D;63703;44.716;37.846;2023-03-23T10:49:04;18.47;60.72
75130;HTU21D;63703;44.716;37.846;2023-03-23T10:51:36;18.70;60.28
75130;HTU21D;63703;44.716;37.846;2023-03-23T10:54:04;19.07;60.06
75130;HTU21D;63703;44.716;37.846;2023-03-23T10:56:42;19.10;58.40
75130;HTU21D;63703;44.716;37.846;2023-03-23T11:01:50;18.40;58.61
75130;HTU21D;63703;44.716;37.846;2023-03-23T11:04:17;17.99;58.91
75130;HTU21D;63703;44.716;37.846;2023-03-23T11:06:51;17.66;59.08
75130;HTU21D;63703;44.716;37.846;2023-03-23T11:09:21;17.39;59.55
75130;HTU21D;63703;44.716;37.846;2023-03-23T11:11:54;17.25;59.90
75130;HTU21D;63703;44.716;37.846;2023-03-23T11:14:35;17.13;60.00
75130;HTU21D;63703;44.716;37.846;2023-03-23T11:17:18;16.92;60.47
75130;HTU21D;63703;44.716;37.846;2023-03-23T11:19:45;16.66;60.25
75130;HTU21D;63703;44.716;37.846;2023-03-23T11:22:32;16.46;60.18
75130;HTU21D;63703;44.716;37.846;2023-03-23T11:25:04;16.31;60.19
75130;HTU21D;63703;44.716;37.846;2023-03-23T11:27:31;16.12;60.67
75130;HTU21D;63703;44.716;37.846;2023-03-23T11:30:24;15.98;60.87
75130;HTU21D;63703;44.716;37.846;2023-03-23T11:32:51;15.82;61.09
75130;HTU21D;63703;44.716;37.846;2023-03-23T11:35:22;15.73;61.67
75130;HTU21D;63703;44.716;37.846;2023-03-23T11:37:52;15.74;62.06
75130;HTU21D;63703;44.716;37.846;2023-03-23T11:40:22;15.70;62.44
75130;HTU21D;63703;44.716;37.846;2023-03-23T11:43:00;15.69;62.63
75130;HTU21D;63703;44.716;37.846;2023-03-23T11:45:50;15.56;63.08
75130;HTU21D;63703;44.716;37.846;2023-03-23T11:51:08;15.43;63.57
75130;HTU21D;63703;44.716;37.846;2023-03-23T11:54:03;15.42;63.87
75130;HTU21D;63703;44.716;37.846;2023-03-23T11:56:30;15.38;64.03
75130;HTU21D;63703;44.716;37.846;2023-03-23T11:58:58;15.41;64.09
75130;HTU21D;63703;44.716;37.846;2023-03-23T12:01:48;15.42;64.24
75130;HTU21D;63703;44.716;37.846;2023-03-23T12:12:59;15.98;63.65
75130;HTU21D;63703;44.716;37.846;2023-03-23T12:18:37;15.90;63.82
75130;HTU21D;63703;44.716;37.846;2023-03-23T12:26:33;15.13;64.63
75130;HTU21D;63703;44.716;37.846;2023-03-23T12:31:56;15.07;65.15
75130;HTU21D;63703;44.716;37.846;2023-03-23T12:34:40;15.03;65.32
75130;HTU21D;63703;44.716;37.846;2023-03-23T12:42:59;14.29;66.51
75130;HTU21D;63703;44.716;37.846;2023-03-23T12:45:50;14.17;67.39
75130;HTU21D;63703;44.716;37.846;2023-03-23T12:48:20;13.98;67.40
75130;HTU21D;63703;44.716;37.846;2023-03-23T12:51:12;13.89;67.78
75130;HTU21D;63703;44.716;37.846;2023-03-23T12:53:51;13.82;67.96
75130;HTU21D;63703;44.716;37.846;2023-03-23T12:56:37;13.78;68.26
75130;HTU21D;63703;44.716;37.846;2023-03-23T12:59:12;13.75;68.51
75130;HTU21D;63703;44.716;37.846;2023-03-23T13:01:46;13.84;68.73
75130;HTU21D;63703;44.716;37.846;2023-03-23T13:04:17;13.94;68.62
75130;HTU21D;63703;44.716;37.846;2023-03-23T13:06:46;13.96;68.65
75130;HTU21D;63703;44.716;37.846;2023-03-23T13:12:32;13.99;68.73
75130;HTU21D;63703;44.716;37.846;2023-03-23T13:15:29;14.07;69.09
75130;HTU21D;63703;44.716;37.846;2023-03-23T13:23:35;14.23;69.22
75130;HTU21D;63703;44.716;37.846;2023-03-23T13:26:06;14.11;69.09
75130;HTU21D;63703;44.716;37.846;2023-03-23T13:29:18;13.89;69.49
75130;HTU21D;63703;44.716;37.846;2023-03-23T13:34:19;13.56;70.19
75130;HTU21D;63703;44.716;37.846;2023-03-23T13:37:00;13.50;70.24
75130;HTU21D;63703;44.716;37.846;2023-03-23T13:39:38;13.38;70.31
75130;HTU21D;63703;44.716;37.846;2023-03-23T13:49:58;13.14;71.12
75130;HTU21D;63703;44.716;37.846;2023-03-23T13:54:51;13.08;71.39
75130;HTU21D;63703;44.716;37.846;2023-03-23T13:57:26;13.06;71.57
75130;HTU21D;63703;44.716;37.846;2023-03-23T13:59:58;13.00;71.76
75130;HTU21D;63703;44.716;37.846;2023-03-23T14:02:39;13.00;72.09
75130;HTU21D;63703;44.716;37.846;2023-03-23T14:05:32;13.07;72.16
75130;HTU21D;63703;44.716;37.846;2023-03-23T14:10:39;12.95;72.04
75130;HTU21D;63703;44.716;37.846;2023-03-23T14:13:20;12.82;72.39
75130;HTU21D;63703;44.716;37.846;2023-03-23T14:16:00;12.79;72.67
75130;HTU21D;63703;44.716;37.846;2023-03-23T14:18:35;12.80;72.57
75130;HTU21D;63703;44.716;37.846;2023-03-23T14:21:03;12.76;72.58
75130;HTU21D;63703;44.716;37.846;2023-03-23T14:23:34;12.71;72.68
75130;HTU21D;63703;44.716;37.846;2023-03-23T14:26:10;12.65;72.94
75130;HTU21D;63703;44.716;37.846;2023-03-23T14:28:39;12.58;72.99
75130;HTU21D;63703;44.716;37.846;2023-03-23T14:33:41;12.47;73.22
75130;HTU21D;63703;44.716;37.846;2023-03-23T14:36:08;12.50;73.32
75130;HTU21D;63703;44.716;37.846;2023-03-23T14:38:34;12.47;73.42
75130;HTU21D;63703;44.716;37.846;2023-03-23T14:41:04;12.40;73.64
75130;HTU21D;63703;44.716;37.846;2023-03-23T14:43:32;12.37;73.71
75130;HTU21D;63703;44.716;37.846;2023-03-23T14:46:01;12.38;73.81
75130;HTU21D;63703;44.716;37.846;2023-03-23T14:48:28;12.42;73.86
75130;HTU21D;63703;44.716;37.846;2023-03-23T14:51:00;12.41;74.02
75130;HTU21D;63703;44.716;37.846;2023-03-23T14:53:31;12.37;74.02
75130;HTU21D;63703;44.716;37.846;2023-03-23T14:56:03;12.36;74.12
75130;HTU21D;63703;44.716;37.846;2023-03-23T14:58:30;12.30;74.16
75130;HTU21D;63703;44.716;37.846;2023-03-23T15:01:06;12.32;74.31
75130;HTU21D;63703;44.716;37.846;2023-03-23T15:03:42;12.34;74.41
75130;HTU21D;63703;44.716;37.846;2023-03-23T15:06:17;12.37;74.47
75130;HTU21D;63703;44.716;37.846;2023-03-23T15:08:46;12.38;74.33
75130;HTU21D;63703;44.716;37.846;2023-03-23T15:13:50;12.42;74.43
75130;HTU21D;63703;44.716;37.846;2023-03-23T15:16:23;12.37;74.51
75130;HTU21D;63703;44.716;37.846;2023-03-23T15:19:16;12.32;74.82
75130;HTU21D;63703;44.716;37.846;2023-03-23T15:21:49;12.26;74.73
75130;HTU21D;63703;44.716;37.846;2023-03-23T15:24:38;12.19;74.99
75130;HTU21D;63703;44.716;37.846;2023-03-23T15:29:50;12.13;75.02
75130;HTU21D;63703;44.716;37.846;2023-03-23T15:32:31;12.21;74.81
75130;HTU21D;63703;44.716;37.846;2023-03-23T15:35:04;12.23;74.73
75130;HTU21D;63703;44.716;37.846;2023-03-23T15:37:31;12.18;74.74
75130;HTU21D;63703;44.716;37.846;2023-03-23T15:39:58;12.10;74.85
75130;HTU21D;63703;44.716;37.846;2023-03-23T15:42:29;12.01;74.99
75130;HTU21D;63703;44.716;37.846;2023-03-23T15:45:16;11.92;75.11
75130;HTU21D;63703;44.716;37.846;2023-03-23T15:52:52;11.66;75.31
75130;HTU21D;63703;44.716;37.846;2023-03-23T15:55:34;11.56;75.43
75130;HTU21D;63703;44.716;37.846;2023-03-23T15:58:01;11.46;75.61
75130;HTU21D;63703;44.716;37.846;2023-03-23T16:00:30;11.33;75.89
75130;HTU21D;63703;44.716;37.846;2023-03-23T16:03:00;11.26;76.11
75130;HTU21D;63703;44.716;37.846;2023-03-23T16:05:27;11.22;76.16
75130;HTU21D;63703;44.716;37.846;2023-03-23T16:07:53;11.14;76.29
75130;HTU21D;63703;44.716;37.846;2023-03-23T16:10:22;11.08;76.44
75130;HTU21D;63703;44.716;37.846;2023-03-23T16:12:49;10.99;76.54
75130;HTU21D;63703;44.716;37.846;2023-03-23T16:15:15;10.94;76.65
75130;HTU21D;63703;44.716;37.846;2023-03-23T16:17:41;10.90;76.71
75130;HTU21D;63703;44.716;37.846;2023-03-23T16:20:27;10.86;77.03
75130;HTU21D;63703;44.716;37.846;2023-03-23T16:22:54;10.82;76.81
75130;HTU21D;63703;44.716;37.846;2023-03-23T16:25:20;10.77;76.95
75130;HTU21D;63703;44.716;37.846;2023-03-23T16:27:46;10.73;77.11
75130;HTU21D;63703;44.716;37.846;2023-03-23T16:32:42;10.65;77.46
75130;HTU21D;63703;44.716;37.846;2023-03-23T16:35:09;10.65;77.60
75130;HTU21D;63703;44.716;37.846;2023-03-23T16:37:35;10.63;77.72
75130;HTU21D;63703;44.716;37.846;2023-03-23T16:40:02;10.64;77.81
75130;HTU21D;63703;44.716;37.846;2023-03-23T16:42:28;10.66;77.89
75130;HTU21D;63703;44.716;37.846;2023-03-23T16:44:54;10.67;77.92
75130;HTU21D;63703;44.716;37.846;2023-03-23T16:47:21;10.69;77.94
75130;HTU21D;63703;44.716;37.846;2023-03-23T16:49:51;10.68;77.95
75130;HTU21D;63703;44.716;37.846;2023-03-23T16:52:17;10.69;78.02
75130;HTU21D;63703;44.716;37.846;2023-03-23T16:54:43;10.67;78.10
75130;HTU21D;63703;44.716;37.846;2023-03-23T16:57:10;10.65;78.21
75130;HTU21D;63703;44.716;37.846;2023-03-23T16:59:36;10.63;78.28
75130;HTU21D;63703;44.716;37.846;2023-03-23T17:02:02;10.64;78.34
75130;HTU21D;63703;44.716;37.846;2023-03-23T17:04:30;10.63;78.38
75130;HTU21D;63703;44.716;37.846;2023-03-23T17:06:56;10.63;78.43
75130;HTU21D;63703;44.716;37.846;2023-03-23T17:09:25;10.62;78.44
75130;HTU21D;63703;44.716;37.846;2023-03-23T17:11:52;10.62;78.47
75130;HTU21D;63703;44.716;37.846;2023-03-23T17:14:19;10.64;78.47
75130;HTU21D;63703;44.716;37.846;2023-03-23T17:16:45;10.66;78.45
75130;HTU21D;63703;44.716;37.846;2023-03-23T17:19:11;10.65;78.53
75130;HTU21D;63703;44.716;37.846;2023-03-23T17:21:39;10.63;78.66
75130;HTU21D;63703;44.716;37.846;2023-03-23T17:24:06;10.60;78.75